Time;durP1;ratioP1;P1;durP2;ratioP2;P2;SDS_P1;SDS_P2;PMS_P1;PMS_P2;Temp;Humidity;BMP_temperature;BMP_pressure;BME280_temperature;BME280_humidity;BME280_pressure;Samples;Min_cycle;Max_cycle;Signal;HPM_P1;HPM_P2
2021/12/03 00:00:13;;;;;;;68.63;35.35;;;;;;;6.10;100.00;99218.97;5002579;28;19972;-89
2021/12/03 00:02:41;;;;;;;67.40;36.15;;;;;;;6.20;100.00;99219.63;4985828;28;20034;-92
2021/12/03 00:05:07;;;;;;;70.35;37.72;;;;;;;6.10;100.00;99229.47;5005630;28;20481;-87
2021/12/03 00:07:33;;;;;;;68.88;35.78;;;;;;;6.21;100.00;99226.53;5013780;28;20022;-85
2021/12/03 00:12:41;;;;;;;64.53;36.25;;;;;;;6.22;100.00;99231.63;4908741;26;20054;-88
2021/12/03 00:15:09;;;;;;;77.40;38.78;;;;;;;5.98;100.00;99229.00;4983984;28;20059;-88
2021/12/03 00:17:35;;;;;;;87.10;39.88;;;;;;;5.89;100.00;99229.16;5090867;23;20066;-90
2021/12/03 00:20:10;;;;;;;73.43;39.22;;;;;;;6.19;100.00;99223.25;4945441;29;20067;-89
2021/12/03 00:22:37;;;;;;;69.88;38.20;;;;;;;6.24;100.00;99218.31;4943766;29;20061;-89
2021/12/03 00:25:03;;;;;;;62.42;32.88;;;;;;;6.39;100.00;99234.25;4959395;29;20119;-91
2021/12/03 00:27:29;;;;;;;65.30;34.13;;;;;;;6.47;100.00;99229.78;4960340;28;20102;-90
2021/12/03 00:29:54;;;;;;;65.07;32.83;;;;;;;6.40;100.00;99233.22;4957882;29;20049;-90
2021/12/03 00:32:23;;;;;;;58.60;32.05;;;;;;;6.49;100.00;99237.53;4960597;28;20182;-88
2021/12/03 00:34:48;;;;;;;64.97;34.35;;;;;;;6.39;100.00;99242.13;4958918;29;20071;-91
2021/12/03 00:37:14;;;;;;;59.38;33.10;;;;;;;6.57;100.00;99238.31;4960258;29;20034;-91
2021/12/03 00:39:40;;;;;;;69.35;34.33;;;;;;;6.36;100.00;99243.31;4944385;29;20059;-91
2021/12/03 00:42:06;;;;;;;57.75;32.35;;;;;;;6.52;100.00;99259.06;4964056;29;20031;-92
2021/12/03 00:44:34;;;;;;;60.03;31.20;;;;;;;6.54;100.00;99250.97;4961422;28;20038;-92
2021/12/03 00:46:59;;;;;;;59.95;30.42;;;;;;;6.29;100.00;99260.72;4945692;29;20044;-88
2021/12/03 00:49:27;;;;;;;60.55;29.33;;;;;;;6.15;100.00;99271.91;4960894;28;20103;-91
2021/12/03 00:51:52;;;;;;;56.00;30.17;;;;;;;5.92;100.00;99271.75;4962014;28;20027;-88
2021/12/03 00:54:18;;;;;;;60.17;30.92;;;;;;;5.89;100.00;99279.13;4960771;29;20071;-88
2021/12/03 00:56:44;;;;;;;63.22;30.33;;;;;;;5.94;100.00;99282.91;4961052;28;20039;-92
2021/12/03 00:59:10;;;;;;;60.78;29.70;;;;;;;5.95;100.00;99291.63;4946174;29;20047;-87
2021/12/03 01:01:38;;;;;;;58.10;29.80;;;;;;;6.01;100.00;99296.22;4960822;29;20078;-91
2021/12/03 01:04:04;;;;;;;59.55;29.92;;;;;;;6.18;100.00;99297.88;4960802;29;20039;-90
2021/12/03 01:06:30;;;;;;;60.58;30.65;;;;;;;6.10;100.00;99301.31;4961064;29;20478;-88
2021/12/03 01:08:56;;;;;;;55.22;28.58;;;;;;;6.30;100.00;99304.44;4960494;28;20047;-89
2021/12/03 01:11:21;;;;;;;57.63;29.65;;;;;;;6.38;100.00;99309.72;4961107;29;20430;-88
2021/12/03 01:13:48;;;;;;;55.38;29.38;;;;;;;6.40;100.00;99306.91;4961889;28;20372;-90
2021/12/03 01:16:15;;;;;;;54.25;29.05;;;;;;;6.42;100.00;99313.69;4963923;28;20094;-90
2021/12/03 01:18:41;;;;;;;55.20;30.55;;;;;;;6.26;100.00;99310.22;4963878;28;20031;-90
2021/12/03 01:21:08;;;;;;;52.92;28.17;;;;;;;6.34;100.00;99308.41;4981897;28;20045;-91
2021/12/03 01:23:53;;;;;;;52.25;26.90;;;;;;;6.42;100.00;99316.31;4992072;28;20046;-85
2021/12/03 01:26:20;;;;;;;54.28;27.92;;;;;;;6.41;100.00;99325.19;4995006;28;20046;-90
2021/12/03 01:28:47;;;;;;;55.05;28.08;;;;;;;6.47;100.00;99329.78;4962999;28;20034;-90
2021/12/03 01:31:14;;;;;;;56.05;28.23;;;;;;;6.53;100.00;99321.22;4961842;28;20066;-90
2021/12/03 01:33:41;;;;;;;56.60;29.38;;;;;;;6.67;100.00;99325.81;4962003;28;20105;-87
2021/12/03 01:36:06;;;;;;;60.55;28.90;;;;;;;6.70;100.00;99325.50;4979059;28;20047;-87
2021/12/03 01:38:33;;;;;;;52.10;27.55;;;;;;;6.78;100.00;99331.75;4963148;28;20124;-86
2021/12/03 01:40:58;;;;;;;56.58;28.70;;;;;;;6.59;100.00;99331.13;4962979;28;20078;-88
2021/12/03 01:43:27;;;;;;;57.17;30.33;;;;;;;6.32;100.00;99341.13;4980353;28;20027;-91
2021/12/03 01:46:00;;;;;;;60.83;31.80;;;;;;;6.10;100.00;99339.94;4979608;28;20039;-88
2021/12/03 01:48:26;;;;;;;62.58;34.97;;;;;;;6.02;100.00;99355.72;4945130;28;20043;-87
2021/12/03 01:50:56;;;;;;;67.47;35.90;;;;;;;6.08;100.00;99347.19;4962311;28;20063;-88
2021/12/03 01:53:26;;;;;;;69.20;35.47;;;;;;;6.14;100.00;99355.25;4978697;28;20035;-87
2021/12/03 01:55:55;;;;;;;77.38;38.10;;;;;;;6.19;100.00;99360.03;4978901;28;20483;-88
2021/12/03 01:58:21;;;;;;;67.57;34.75;;;;;;;6.33;100.00;99364.63;4979264;28;20486;-88
2021/12/03 02:00:53;;;;;;;77.78;38.35;;;;;;;6.30;100.00;99369.44;4978624;28;20181;-89
2021/12/03 02:03:21;;;;;;;;;;;;;;;6.26;100.00;99378.63;4979805;28;20059;-88
2021/12/03 02:05:46;;;;;;;72.95;37.65;;;;;;;6.11;100.00;99371.38;4980683;28;19918;-93
2021/12/03 02:08:13;;;;;;;80.85;40.50;;;;;;;6.05;100.00;99384.34;4961591;28;20043;-88
2021/12/03 02:10:40;;;;;;;71.63;39.10;;;;;;;6.06;100.00;99392.09;4977885;28;20116;-87
2021/12/03 02:13:07;;;;;;;80.10;41.50;;;;;;;6.05;100.00;99384.34;4979566;28;20035;-91
2021/12/03 02:15:33;;;;;;;79.68;41.92;;;;;;;6.03;100.00;99391.59;4977855;28;20134;-88
2021/12/03 02:17:59;;;;;;;75.97;40.88;;;;;;;6.09;100.00;99394.38;4979210;28;20042;-89
2021/12/03 02:20:27;;;;;;;78.78;42.53;;;;;;;6.07;100.00;99400.78;4946154;28;20538;-89
2021/12/03 02:22:53;;;;;;;76.03;39.38;;;;;;;6.15;100.00;99403.44;4961642;28;20043;-88
2021/12/03 02:25:22;;;;;;;82.85;40.08;;;;;;;6.29;100.00;99405.44;4950592;28;20027;-90
2021/12/03 02:27:53;;;;;;;62.83;36.35;;;;;;;6.34;100.00;99424.19;4961225;28;20042;-91
2021/12/03 02:30:24;;;;;;;65.20;35.78;;;;;;;6.38;100.00;99422.88;4979666;28;20035;-89
2021/12/03 02:32:51;;;;;;;64.90;33.20;;;;;;;6.51;100.00;99428.50;4981192;28;20043;-91
2021/12/03 02:35:23;;;;;;;56.95;32.08;;;;;;;6.41;100.00;99429.63;4979929;28;20035;-91
2021/12/03 02:37:50;;;;;;;33.17;20.65;;;;;;;6.54;100.00;99425.53;4946187;28;20053;-88
2021/12/03 02:40:16;;;;;;;49.28;27.52;;;;;;;6.58;100.00;99432.13;4984025;28;20039;-89
2021/12/03 02:46:07;;;;;;;52.05;28.23;;;;;;;6.64;100.00;99463.06;4999659;28;20039;-88
2021/12/03 02:48:35;;;;;;;43.10;26.27;;;;;;;6.67;100.00;99472.44;4999371;28;20055;-88
2021/12/03 02:51:05;;;;;;;45.20;26.23;;;;;;;6.48;100.00;99468.28;4996294;28;20027;-87
2021/12/03 02:53:31;;;;;;;54.38;28.70;;;;;;;6.37;100.00;99486.19;4979628;28;20026;-90
2021/12/03 02:56:00;;;;;;;49.50;30.33;;;;;;;6.17;100.00;99493.53;4979479;28;20084;-89
2021/12/03 02:58:26;;;;;;;55.08;32.13;;;;;;;6.09;100.00;99493.50;4979544;28;20043;-88
2021/12/03 03:00:52;;;;;;;61.38;29.83;;;;;;;6.11;100.00;99505.50;4973028;28;20065;-85
2021/12/03 03:03:18;;;;;;;48.47;29.35;;;;;;;6.14;100.00;99507.00;4988294;28;20098;-84
2021/12/03 03:05:55;;;;;;;50.17;29.67;;;;;;;6.20;100.00;99511.63;4988365;28;20107;-85
2021/12/03 03:08:22;;;;;;;55.10;30.60;;;;;;;6.03;100.00;99516.00;4972442;28;20069;-85
2021/12/03 03:10:47;;;;;;;55.80;30.65;;;;;;;6.09;100.00;99520.66;4972515;28;20034;-86
2021/12/03 03:13:13;;;;;;;51.15;30.35;;;;;;;6.03;100.00;99531.75;4989442;28;20098;-86
2021/12/03 03:15:40;;;;;;;52.95;30.92;;;;;;;6.08;100.00;99523.41;4985798;28;20041;-91
2021/12/03 03:18:14;;;;;;;51.80;29.20;;;;;;;6.02;100.00;99529.31;4981785;28;20078;-88
2021/12/03 03:20:59;;;;;;;50.30;28.92;;;;;;;6.01;100.00;99540.81;4965817;28;20046;-87
2021/12/03 03:23:28;;;;;;;56.85;31.88;;;;;;;5.88;100.00;99538.59;4991908;28;20102;-87
2021/12/03 03:25:54;;;;;;;53.83;31.45;;;;;;;5.88;100.00;99543.03;4962470;28;20033;-86
2021/12/03 03:28:21;;;;;;;62.95;32.40;;;;;;;5.80;100.00;99550.88;4980669;28;20041;-90
2021/12/03 03:30:51;;;;;;;58.67;32.17;;;;;;;5.99;100.00;99564.66;4963997;28;20126;-89
2021/12/03 03:33:18;;;;;;;66.50;31.85;;;;;;;5.95;100.00;99557.22;4963108;28;20041;-91
2021/12/03 03:35:44;;;;;;;59.05;31.23;;;;;;;5.85;100.00;99569.59;4963578;28;20031;-90
2021/12/03 03:38:13;;;;;;;52.97;29.67;;;;;;;5.78;100.00;99565.94;4980404;28;20387;-89
2021/12/03 03:40:40;;;;;;;52.67;31.00;;;;;;;5.96;100.00;99556.25;4980294;28;20030;-89
2021/12/03 03:43:08;;;;;;;53.60;30.40;;;;;;;5.96;100.00;99572.84;4963462;28;20031;-88
2021/12/03 03:45:36;;;;;;;49.22;29.63;;;;;;;5.99;100.00;99576.97;4989385;28;20132;-87
2021/12/03 03:48:06;;;;;;;52.63;30.15;;;;;;;5.99;100.00;99579.59;4965498;28;20091;-89
2021/12/03 03:50:32;;;;;;;47.22;28.67;;;;;;;5.94;100.00;99581.84;4949639;28;20058;-89
2021/12/03 03:53:01;;;;;;;52.47;29.90;;;;;;;6.07;100.00;99590.97;4963455;28;20035;-91
2021/12/03 03:55:32;;;;;;;53.10;30.15;;;;;;;6.10;100.00;99587.19;4949074;28;20142;-92
2021/12/03 03:58:19;;;;;;;49.38;27.52;;;;;;;6.20;100.00;99601.91;4967255;28;20077;-90
2021/12/03 04:00:58;;;;;;;53.90;28.00;;;;;;;6.42;100.00;99599.72;5445094;23;20050;-88
2021/12/03 04:03:24;;;;;;;48.35;28.35;;;;;;;6.52;100.00;99606.50;4983381;28;20038;-92
2021/12/03 04:05:49;;;;;;;49.30;27.58;;;;;;;6.50;100.00;99592.66;4999345;28;20038;-90
2021/12/03 04:08:15;;;;;;;50.03;27.08;;;;;;;6.57;100.00;99608.63;4981978;28;20038;-90
2021/12/03 04:10:41;;;;;;;45.38;25.95;;;;;;;6.62;100.00;99604.56;4999017;28;20117;-90
2021/12/03 04:13:09;;;;;;;47.10;26.70;;;;;;;6.41;100.00;99614.66;4999303;28;20123;-90
2021/12/03 04:15:37;;;;;;;47.60;27.50;;;;;;;6.35;100.00;99615.31;4983532;28;20513;-90
2021/12/03 04:18:06;;;;;;;50.78;26.63;;;;;;;6.33;100.00;99633.03;5003132;28;20405;-89
2021/12/03 04:20:31;;;;;;;45.17;26.08;;;;;;;6.24;100.00;99634.81;4986239;28;20105;-89
2021/12/03 04:22:57;;;;;;;48.38;27.02;;;;;;;6.11;100.00;99634.41;5002486;28;20038;-90
2021/12/03 04:25:23;;;;;;;48.33;27.88;;;;;;;6.19;100.00;99638.91;5003988;28;20458;-89
2021/12/03 04:27:49;;;;;;;51.05;28.52;;;;;;;6.23;100.00;99645.50;4987336;28;20049;-90
2021/12/03 04:30:28;;;;;;;41.80;25.90;;;;;;;6.31;100.00;99645.53;4986866;28;20065;-87
2021/12/03 04:32:55;;;;;;;45.90;24.27;;;;;;;6.22;100.00;99649.09;5001963;28;20031;-90
2021/12/03 04:35:23;;;;;;;44.22;25.08;;;;;;;6.28;100.00;99656.38;5002588;28;20069;-91
2021/12/03 04:37:50;;;;;;;38.45;22.58;;;;;;;6.18;100.00;99664.38;4985940;28;20469;-89
2021/12/03 04:40:17;;;;;;;38.97;23.92;;;;;;;6.29;100.00;99668.56;5003183;28;20088;-90
2021/12/03 04:42:44;;;;;;;39.65;22.33;;;;;;;6.30;100.00;99685.97;5003548;28;20518;-88
2021/12/03 04:45:11;;;;;;;39.95;22.63;;;;;;;6.25;100.00;99693.53;5004319;28;20049;-88
2021/12/03 04:47:40;;;;;;;40.80;22.88;;;;;;;6.29;100.00;99694.03;4986484;28;20054;-91
2021/12/03 04:50:09;;;;;;;34.45;22.48;;;;;;;6.22;100.00;99683.31;4988912;28;20039;-89
2021/12/03 04:52:36;;;;;;;36.78;21.85;;;;;;;6.29;100.00;99681.72;4987434;28;20058;-91
2021/12/03 04:55:06;;;;;;;36.90;22.65;;;;;;;6.41;100.00;99692.78;5003581;28;20103;-91
2021/12/03 04:57:32;;;;;;;40.53;23.70;;;;;;;6.37;100.00;99689.63;4986143;28;20037;-87
2021/12/03 04:59:58;;;;;;;39.38;23.38;;;;;;;6.37;100.00;99694.06;5003145;28;20042;-91
2021/12/03 05:02:25;;;;;;;39.78;24.83;;;;;;;6.23;100.00;99706.81;5002771;28;20026;-90
2021/12/03 05:04:53;;;;;;;41.83;24.92;;;;;;;6.15;100.00;99706.78;4985283;28;20031;-88
2021/12/03 05:09:53;;;;;;;46.17;25.48;;;;;;;6.09;100.00;99717.09;4986149;28;20045;-92
2021/12/03 05:12:19;;;;;;;47.67;27.25;;;;;;;6.08;100.00;99715.44;4984951;28;20034;-90
2021/12/03 05:14:47;;;;;;;45.75;26.45;;;;;;;6.04;100.00;99722.78;5002923;28;20030;-92
2021/12/03 05:17:19;;;;;;;46.53;27.05;;;;;;;5.98;100.00;99722.59;4981855;28;20034;-87
2021/12/03 05:19:46;;;;;;;44.75;26.13;;;;;;;6.18;100.00;99729.31;4982976;28;20097;-86
2021/12/03 05:22:33;;;;;;;49.38;27.13;;;;;;;6.34;100.00;99739.94;4971663;28;20057;-92
2021/12/03 05:25:00;;;;;;;55.78;29.20;;;;;;;6.11;100.00;99736.16;4990923;28;20042;-88
2021/12/03 05:27:25;;;;;;;49.42;28.10;;;;;;;6.03;100.00;99751.91;4979795;28;20046;-87
2021/12/03 05:29:51;;;;;;;55.25;31.02;;;;;;;5.95;100.00;99751.81;4989208;28;20049;-88
2021/12/03 05:35:43;;;;;;;51.00;27.80;;;;;;;6.10;100.00;99752.91;5020141;28;20031;-85
2021/12/03 05:38:13;;;;;;;47.00;26.77;;;;;;;6.24;100.00;99760.28;5019091;28;20045;-90
2021/12/03 05:40:39;;;;;;;51.65;29.08;;;;;;;6.13;100.00;99765.78;5001144;28;20136;-85
2021/12/03 05:43:05;;;;;;;50.33;28.08;;;;;;;6.13;100.00;99765.78;4985199;28;20088;-83
2021/12/03 05:45:33;;;;;;;47.63;27.98;;;;;;;6.11;100.00;99770.38;4980753;28;20054;-84
2021/12/03 05:48:03;;;;;;;46.97;27.15;;;;;;;5.97;100.00;99768.25;4980134;28;20060;-84
2021/12/03 05:50:29;;;;;;;49.40;27.90;;;;;;;5.95;100.00;99776.31;4998998;28;20042;-83
2021/12/03 05:52:57;;;;;;;54.22;28.63;;;;;;;6.08;100.00;99786.44;4997040;28;20061;-85
2021/12/03 05:55:26;;;;;;;51.10;28.90;;;;;;;5.95;100.00;99783.38;4993514;28;20034;-84
2021/12/03 05:57:53;;;;;;;54.25;30.27;;;;;;;5.87;100.00;99783.28;4994942;28;20053;-84
2021/12/03 06:00:40;;;;;;;57.15;31.60;;;;;;;5.88;100.00;99784.94;4994727;28;20050;-82
2021/12/03 06:03:06;;;;;;;56.85;30.55;;;;;;;5.81;100.00;99799.63;4997685;28;20053;-86
2021/12/03 06:05:33;;;;;;;57.83;31.13;;;;;;;5.91;100.00;99795.16;4979871;28;20026;-83
2021/12/03 06:07:58;;;;;;;54.15;31.30;;;;;;;6.08;100.00;99794.34;4996398;28;20478;-83
2021/12/03 06:10:24;;;;;;;54.25;30.80;;;;;;;6.08;100.00;99802.22;4998426;28;20116;-84
2021/12/03 06:12:50;;;;;;;54.55;30.15;;;;;;;6.08;100.00;99805.69;4995956;28;20121;-84
2021/12/03 06:15:17;;;;;;;54.22;30.85;;;;;;;5.99;100.00;99816.28;4996955;28;20069;-82
2021/12/03 06:17:49;;;;;;;58.03;32.22;;;;;;;5.76;100.00;99820.31;4997459;28;20106;-83
2021/12/03 06:20:18;;;;;;;52.63;31.42;;;;;;;5.71;100.00;99812.84;4980551;28;20046;-89
2021/12/03 06:22:47;;;;;;;58.65;32.17;;;;;;;5.70;100.00;99819.91;4968502;28;20440;-81
2021/12/03 06:25:14;;;;;;;53.30;31.60;;;;;;;5.63;100.00;99831.97;4997769;28;20030;-83
2021/12/03 06:27:40;;;;;;;55.38;32.60;;;;;;;5.58;100.00;99815.84;4996902;28;20093;-83
2021/12/03 06:30:14;;;;;;;53.92;31.60;;;;;;;5.56;100.00;99832.75;4998615;28;20065;-87
2021/12/03 06:32:41;;;;;;;58.00;32.25;;;;;;;5.45;100.00;99833.75;4997570;28;20038;-84
2021/12/03 06:35:09;;;;;;;54.85;31.25;;;;;;;5.64;100.00;99843.31;4979302;28;20045;-84
2021/12/03 06:37:35;;;;;;;61.03;33.22;;;;;;;5.70;100.00;99850.66;4996061;28;20041;-85
2021/12/03 06:40:03;;;;;;;53.13;30.70;;;;;;;5.87;100.00;99841.13;4980445;28;20096;-82
2021/12/03 06:42:31;;;;;;;52.90;30.80;;;;;;;6.15;100.00;99850.63;4995392;28;20121;-80
2021/12/03 06:44:58;;;;;;;54.20;31.10;;;;;;;5.83;100.00;99851.13;4992596;28;20065;-88
2021/12/03 06:47:23;;;;;;;53.63;31.77;;;;;;;5.90;100.00;99861.91;4998426;28;20482;-88
2021/12/03 06:49:49;;;;;;;63.90;33.13;;;;;;;5.81;100.00;99865.38;5000300;28;20066;-89
2021/12/03 06:52:16;;;;;;;58.65;31.95;;;;;;;5.97;100.00;99868.19;4986560;28;20038;-87
2021/12/03 06:54:43;;;;;;;52.75;31.92;;;;;;;5.83;100.00;99861.63;4979842;28;20056;-90
2021/12/03 06:57:14;;;;;;;53.13;30.45;;;;;;;5.73;100.00;99880.06;5003088;28;20021;-88
2021/12/03 06:59:42;;;;;;;56.22;32.10;;;;;;;5.64;100.00;99882.75;5004112;28;20042;-89
2021/12/03 07:02:09;;;;;;;55.55;30.92;;;;;;;5.67;100.00;99888.56;4989195;28;20397;-87
2021/12/03 07:04:34;;;;;;;60.58;31.20;;;;;;;5.57;100.00;99890.41;4994294;28;20026;-84
2021/12/03 07:07:01;;;;;;;58.08;32.17;;;;;;;5.59;100.00;99898.16;4996587;28;20113;-87
2021/12/03 07:09:26;;;;;;;54.47;32.13;;;;;;;5.51;100.00;99903.28;4981043;28;20193;-89
2021/12/03 07:11:52;;;;;;;49.25;29.45;;;;;;;5.44;100.00;99908.31;4977717;28;20038;-86
2021/12/03 07:14:18;;;;;;;47.45;27.30;;;;;;;5.30;100.00;99906.16;4977599;28;20044;-87
2021/12/03 07:16:43;;;;;;;46.67;26.77;;;;;;;5.35;100.00;99924.09;4977778;28;20528;-86
2021/12/03 07:19:09;;;;;;;44.67;25.95;;;;;;;5.35;100.00;99927.56;4999739;28;20030;-86
2021/12/03 07:21:35;;;;;;;46.90;26.55;;;;;;;5.22;100.00;99929.69;4999679;28;20034;-85
2021/12/03 07:24:00;;;;;;;48.03;27.98;;;;;;;5.17;100.00;99942.44;4994957;28;20036;-86
2021/12/03 07:26:26;;;;;;;48.83;28.00;;;;;;;5.19;100.00;99946.56;5004255;28;20082;-87
2021/12/03 07:29:31;;;;;;;44.45;26.17;;;;;;;5.48;100.00;99951.72;5018502;28;20033;-87
2021/12/03 07:31:57;;;;;;;42.97;25.98;;;;;;;5.42;100.00;99962.81;5002856;28;20047;-87
2021/12/03 07:34:22;;;;;;;44.47;25.58;;;;;;;5.46;100.00;99963.34;4983902;28;20046;-85
2021/12/03 07:36:48;;;;;;;51.90;28.42;;;;;;;5.48;100.00;99971.91;5009725;28;20116;-84
2021/12/03 07:39:13;;;;;;;58.28;29.17;;;;;;;5.47;100.00;99970.28;5009019;28;20035;-85
2021/12/03 07:41:40;;;;;;;53.33;30.27;;;;;;;5.48;100.00;99982.44;5009384;28;20050;-83
2021/12/03 07:44:08;;;;;;;55.05;29.13;;;;;;;5.39;100.00;99980.66;4994005;28;20026;-82
2021/12/03 07:46:33;;;;;;;55.78;31.40;;;;;;;5.31;100.00;99991.88;5005810;28;20022;-86
2021/12/03 07:49:05;;;;;;;59.92;31.63;;;;;;;5.34;100.00;99996.84;4996552;28;20036;-87
2021/12/03 07:51:31;;;;;;;63.05;31.05;;;;;;;5.35;100.00;100001.13;5000219;28;20065;-84
2021/12/03 07:53:57;;;;;;;50.60;30.35;;;;;;;5.31;100.00;100002.38;4980618;28;20106;-84
2021/12/03 07:56:22;;;;;;;55.42;31.02;;;;;;;5.34;100.00;100011.78;4980670;28;20070;-86
2021/12/03 07:58:48;;;;;;;61.30;33.05;;;;;;;5.30;100.00;100021.75;4964266;28;20393;-83
2021/12/03 08:01:14;;;;;;;55.38;31.42;;;;;;;5.20;100.00;100026.19;4997833;28;20042;-86
2021/12/03 08:03:39;;;;;;;58.95;31.88;;;;;;;5.18;100.00;100038.63;4997741;28;20026;-86
2021/12/03 08:06:09;;;;;;;64.75;34.75;;;;;;;5.06;100.00;100050.25;4980393;28;20034;-88
2021/12/03 08:08:50;;;;;;;65.07;35.60;;;;;;;5.05;100.00;100048.59;4998048;28;20490;-88
2021/12/03 08:11:16;;;;;;;65.25;36.00;;;;;;;5.09;100.00;100044.72;4965704;28;20039;-88
2021/12/03 08:13:42;;;;;;;64.03;37.35;;;;;;;5.03;100.00;100043.47;5002849;28;20030;-89
2021/12/03 08:16:07;;;;;;;63.25;36.42;;;;;;;5.07;100.00;100046.66;4983077;28;20097;-91
2021/12/03 08:18:38;;;;;;;67.30;37.80;;;;;;;5.25;100.00;100046.78;5000748;28;20082;-88
2021/12/03 08:21:07;;;;;;;66.40;36.42;;;;;;;5.35;100.00;100045.81;4984638;28;20046;-88
2021/12/03 08:23:33;;;;;;;67.45;36.13;;;;;;;5.27;100.00;100050.91;5000804;28;20477;-88
2021/12/03 08:25:58;;;;;;;78.28;35.85;;;;;;;5.33;100.00;100060.88;4976353;28;20033;-86
2021/12/03 08:28:24;;;;;;;73.55;37.20;;;;;;;5.19;100.00;100053.44;4988512;28;20038;-87
2021/12/03 08:30:50;;;;;;;68.70;34.70;;;;;;;5.17;100.00;100061.44;5007645;28;20049;-89
2021/12/03 08:33:19;;;;;;;69.35;35.13;;;;;;;5.16;100.00;100072.09;5019320;28;20041;-87
2021/12/03 08:35:45;;;;;;;67.30;34.30;;;;;;;5.09;100.00;100081.50;5018274;28;20042;-88
2021/12/03 08:38:11;;;;;;;64.82;34.00;;;;;;;5.01;100.00;100089.22;4977738;28;20292;-87
2021/12/03 08:40:37;;;;;;;58.80;31.85;;;;;;;5.17;100.00;100084.25;4999128;28;20049;-86
2021/12/03 08:43:03;;;;;;;64.65;32.97;;;;;;;5.20;100.00;100089.25;4998646;28;20501;-88
2021/12/03 08:45:29;;;;;;;61.83;33.55;;;;;;;5.30;100.00;100095.31;4964976;28;20034;-88
2021/12/03 08:47:58;;;;;;;59.72;32.35;;;;;;;5.20;100.00;100094.50;4998215;28;20058;-88
2021/12/03 08:50:34;;;;;;;55.45;31.30;;;;;;;5.30;100.00;100102.38;5015112;28;20026;-86
2021/12/03 08:55:48;;;;;;;66.22;34.45;;;;;;;5.28;100.00;100107.75;5001358;28;20568;-87
2021/12/03 08:58:16;;;;;;;66.35;34.47;;;;;;;5.21;100.00;100106.63;4998297;28;20030;-87
2021/12/03 09:00:42;;;;;;;70.15;34.55;;;;;;;5.24;100.00;100111.63;4982607;28;20058;-87
2021/12/03 09:03:07;;;;;;;68.25;35.50;;;;;;;5.24;100.00;100114.25;5003082;28;20084;-87
2021/12/03 09:05:36;;;;;;;71.05;34.72;;;;;;;5.31;100.00;100122.41;4999550;28;20034;-90
2021/12/03 09:08:01;;;;;;;76.13;37.53;;;;;;;5.39;100.00;100130.44;5000197;28;20038;-87
2021/12/03 09:10:27;;;;;;;65.25;36.10;;;;;;;5.40;100.00;100127.66;5000700;28;20058;-87
2021/12/03 09:12:54;;;;;;;69.25;36.08;;;;;;;5.50;100.00;100130.31;5003526;28;20097;-86
2021/12/03 09:15:32;;;;;;;77.38;39.13;;;;;;;5.59;100.00;100129.47;4996575;28;20371;-86
2021/12/03 09:18:12;;;;;;;71.68;37.35;;;;;;;5.81;100.00;100136.19;4996821;28;20038;-86
2021/12/03 09:26:03;;;;;;;73.38;37.67;;;;;;;6.12;100.00;100150.84;4992741;28;20050;-86
2021/12/03 09:28:29;;;;;;;65.78;37.03;;;;;;;6.36;100.00;100153.81;4994877;28;20046;-86
2021/12/03 09:30:55;;;;;;;67.03;36.25;;;;;;;6.45;100.00;100155.59;4996090;28;20041;-85
2021/12/03 09:33:25;;;;;;;67.55;37.03;;;;;;;6.40;100.00;100157.81;4995892;28;20042;-86
2021/12/03 09:35:55;;;;;;;79.90;38.38;;;;;;;6.39;100.00;100158.81;4995740;28;20037;-88
2021/12/03 09:38:21;;;;;;;69.68;37.65;;;;;;;6.45;100.00;100158.22;4996589;28;20081;-88
2021/12/03 09:40:47;;;;;;;72.70;37.75;;;;;;;6.54;100.00;100167.88;4979037;28;20440;-89
2021/12/03 09:43:13;;;;;;;71.78;38.15;;;;;;;6.33;100.00;100161.97;4965755;28;20070;-88
2021/12/03 09:45:43;;;;;;;83.78;39.28;;;;;;;6.35;100.00;100170.59;4996327;28;20030;-87
2021/12/03 09:48:24;;;;;;;80.95;39.17;;;;;;;6.35;100.00;100160.06;4996293;28;20045;-89
2021/12/03 09:50:51;;;;;;;78.45;38.75;;;;;;;6.29;100.00;100165.91;4997681;28;20038;-87
2021/12/03 09:55:44;;;;;;;74.32;38.90;;;;;;;6.35;100.00;100162.69;4996320;28;20038;-91
2021/12/03 10:01:09;;;;;;;94.60;42.80;;;;;;;6.41;100.00;100177.91;4949711;28;20105;-90
2021/12/03 10:04:26;;;;;;;76.00;40.10;;;;;;;6.61;100.00;100176.84;5003659;28;20039;-89
2021/12/03 10:10:09;;;;;;;81.65;38.22;;;;;;;6.89;100.00;100172.44;5002035;28;20069;-86
2021/12/03 10:14:54;;;;;;;69.97;37.22;;;;;;;7.03;100.00;100185.09;5019091;28;20122;-89
2021/12/03 10:20:01;;;;;;;73.50;37.60;;;;;;;7.31;100.00;100188.53;5013483;28;20042;-87
2021/12/03 10:23:25;;;;;;;73.60;38.27;;;;;;;7.37;100.00;100181.81;4978757;28;20034;-88
2021/12/03 11:41:54;;;;;;;56.83;28.92;;;;;;;7.82;100.00;100171.19;5002928;28;20173;-88
2021/12/03 11:56:21;;;;;;;55.20;29.25;;;;;;;7.97;100.00;100164.38;5010818;28;20061;-87
2021/12/03 12:01:37;;;;;;;50.42;26.50;;;;;;;8.01;100.00;100163.09;5011068;28;20053;-86
2021/12/03 13:12:15;;;;;;;33.95;19.42;;;;;;;8.47;100.00;100156.63;4997428;28;20394;-87
2021/12/03 13:20:30;;;;;;;36.30;20.45;;;;;;;8.45;100.00;100158.63;4995687;28;20042;-89
2021/12/03 13:35:04;;;;;;;30.27;18.33;;;;;;;8.75;100.00;100169.47;4987467;28;20057;-88
2021/12/03 13:59:33;;;;;;;32.55;18.67;;;;;;;9.01;99.89;100195.84;5000018;28;20022;-90
2021/12/03 14:11:33;;;;;;;30.25;17.48;;;;;;;9.06;97.19;100201.47;4978982;28;20045;-89
2021/12/03 14:48:53;;;;;;;27.90;17.55;;;;;;;8.80;95.98;100212.13;4899803;29;20512;-88
2021/12/03 14:57:28;;;;;;;28.83;16.55;;;;;;;8.81;97.05;100219.06;4914664;28;20050;-88
2021/12/03 15:00:16;;;;;;;25.70;16.85;;;;;;;8.85;97.14;100208.97;4993195;28;20041;-92
2021/12/03 15:03:11;;;;;;;30.08;16.65;;;;;;;9.00;94.80;100207.41;4970709;28;20081;-86
2021/12/03 15:05:56;;;;;;;35.17;17.33;;;;;;;8.54;98.95;100198.09;4984982;28;20057;-88
2021/12/03 15:22:10;;;;;;;34.90;20.27;;;;;;;8.41;100.00;100216.19;4999910;28;20031;-91
2021/12/03 15:40:57;;;;;;;53.00;22.17;;;;;;;8.25;100.00;100231.91;4985063;28;20054;-89
2021/12/03 15:57:57;;;;;;;39.53;21.45;;;;;;;8.32;100.00;100252.25;4998320;28;20042;-90
2021/12/03 16:54:10;;;;;;;43.92;22.83;;;;;;;7.16;100.00;100322.59;4978923;28;20122;-81
2021/12/03 16:56:42;;;;;;;46.47;24.23;;;;;;;7.11;100.00;100334.56;4979880;28;20529;-81
2021/12/03 16:59:08;;;;;;;44.90;21.30;;;;;;;7.13;100.00;100329.97;4997448;28;20050;-83
2021/12/03 17:01:45;;;;;;;41.47;20.77;;;;;;;7.15;100.00;100331.50;4996917;28;20042;-82
2021/12/03 17:17:29;;;;;;;43.00;19.65;;;;;;;7.05;100.00;100356.22;4996679;28;20048;-81
2021/12/03 17:50:11;;;;;;;30.20;17.00;;;;;;;6.06;100.00;100361.88;5008460;28;20203;-82
2021/12/03 17:55:33;;;;;;;37.60;18.70;;;;;;;5.95;100.00;100359.34;4989451;28;20038;-80
2021/12/03 17:58:15;;;;;;;34.05;18.00;;;;;;;6.08;100.00;100350.25;4993519;28;20045;-79
2021/12/03 18:06:30;;;;;;;41.22;20.48;;;;;;;6.00;100.00;100351.91;4979199;28;20146;-81
2021/12/03 18:17:41;;;;;;;42.65;18.88;;;;;;;5.97;100.00;100373.19;4905928;29;20049;-80
2021/12/03 18:58:05;;;;;;;27.63;15.48;;;;;;;5.26;100.00;100403.94;4996410;28;20477;-86
2021/12/03 19:00:35;;;;;;;38.47;16.83;;;;;;;5.39;100.00;100404.56;4977495;28;20038;-82
2021/12/03 19:03:07;;;;;;;40.17;16.63;;;;;;;5.26;100.00;100403.13;4995380;28;20494;-84
2021/12/03 19:10:29;;;;;;;42.10;20.23;;;;;;;5.00;100.00;100402.72;4995181;28;20045;-85
2021/12/03 19:13:39;;;;;;;41.47;20.17;;;;;;;4.95;100.00;100407.50;4977999;28;20046;-83
2021/12/03 19:15:44;;;;;;;43.08;21.08;;;;;;;4.91;100.00;100400.84;4987321;28;20049;-81
2021/12/03 19:18:10;;;;;;;47.47;23.73;;;;;;;4.79;100.00;100394.84;4977825;28;20049;-82
2021/12/03 19:20:40;;;;;;;46.63;21.50;;;;;;;4.77;100.00;100390.69;4994311;28;20489;-82
2021/12/03 19:23:06;;;;;;;50.63;22.98;;;;;;;4.59;100.00;100396.50;4974842;28;20036;-81
2021/12/03 19:25:32;;;;;;;45.75;22.02;;;;;;;4.62;100.00;100398.84;4995689;28;20455;-83